Terminal Aerodrome Forecast
Issued by NWS Wilmington, OH

Current Version | Previous Version | Text Only | Print | Product List | Glossary Off
Versions: 1 2 3 4 5 6 7 8 9 10 11 12 13 14 15

000
FTUS41 KILN 270800 AAA
TAFDAY
TAF AMD
KDAY 270855Z 2709/2806 VRB03KT P6SM BKN250
     FM271300 05008KT P6SM FEW050 BKN250
     FM280000 07004KT P6SM SCT250=

USA.gov is the U.S. government's official web portal to all federal, state and local government web resources and services.